Time;durP1;ratioP1;P1;durP2;ratioP2;P2;SDS_P1;SDS_P2;PMS_P1;PMS_P2;Temp;Humidity;BMP_temperature;BMP_pressure;BME280_temperature;BME280_humidity;BME280_pressure;Samples;Min_cycle;Max_cycle;Signal;HPM_P1;HPM_P2
2022/12/21 00:01:30;;;;;;;52.03;25.42;;;7.50;99.90;;;;;;5027530;28;21041;-81
2022/12/21 00:03:58;;;;;;;70.25;26.67;;;7.30;99.90;;;;;;5028779;28;20422;-80
2022/12/21 00:06:26;;;;;;;68.53;26.45;;;7.50;99.90;;;;;;5018767;28;20506;-82
2022/12/21 00:08:54;;;;;;;93.95;25.40;;;7.30;99.90;;;;;;5024785;28;20423;-81
2022/12/21 00:11:21;;;;;;;216.07;33.45;;;7.40;99.90;;;;;;5028889;28;20438;-81
2022/12/21 00:13:48;;;;;;;218.00;33.67;;;7.40;99.90;;;;;;5028163;28;20435;-81
2022/12/21 00:16:15;;;;;;;165.90;32.45;;;7.40;99.90;;;;;;5028128;28;20423;-81
2022/12/21 00:18:42;;;;;;;137.20;27.95;;;7.20;99.90;;;;;;5028610;28;20933;-80
2022/12/21 00:21:16;;;;;;;145.95;28.02;;;7.30;99.90;;;;;;5011389;28;20439;-81
2022/12/21 00:23:43;;;;;;;130.80;27.92;;;7.20;99.90;;;;;;5027053;28;20728;-82
2022/12/21 00:26:12;;;;;;;85.07;23.70;;;7.30;99.90;;;;;;5016270;28;20434;-81
2022/12/21 00:28:37;;;;;;;128.65;28.48;;;7.40;99.90;;;;;;5028188;28;21338;-82
2022/12/21 00:31:12;;;;;;;129.30;26.90;;;7.50;99.90;;;;;;5009676;28;20522;-80
2022/12/21 00:33:39;;;;;;;147.07;29.35;;;7.40;99.90;;;;;;5028916;28;21168;-81
2022/12/21 00:36:06;;;;;;;117.15;24.48;;;7.50;99.90;;;;;;5022776;28;20464;-82
2022/12/21 00:38:34;;;;;;;133.63;27.05;;;7.50;99.90;;;;;;5023704;28;20438;-82
2022/12/21 00:41:02;;;;;;;137.02;27.13;;;7.50;99.90;;;;;;5026204;28;20434;-81
2022/12/21 00:43:28;;;;;;;139.00;25.15;;;7.40;99.90;;;;;;5027818;28;20422;-83
2022/12/21 00:45:54;;;;;;;163.85;28.67;;;7.50;99.90;;;;;;5007765;28;20518;-82
2022/12/21 00:48:20;;;;;;;161.55;26.52;;;7.30;99.90;;;;;;5025405;28;20477;-82
2022/12/21 00:50:47;;;;;;;187.13;30.00;;;7.40;99.90;;;;;;5024573;28;20423;-81
2022/12/21 00:53:14;;;;;;;151.02;24.27;;;7.40;99.90;;;;;;5019505;28;20488;-82
2022/12/21 00:55:41;;;;;;;116.63;24.90;;;7.30;99.90;;;;;;5026801;28;20560;-83
2022/12/21 00:58:07;;;;;;;131.17;26.90;;;7.30;99.90;;;;;;5028495;28;20510;-82
2022/12/21 01:00:33;;;;;;;82.88;21.48;;;7.20;99.90;;;;;;5021406;28;20514;-83
2022/12/21 01:02:59;;;;;;;92.38;24.65;;;7.40;99.90;;;;;;5028194;28;20884;-81
2022/12/21 01:05:24;;;;;;;57.72;19.90;;;7.40;99.90;;;;;;5025569;28;20464;-82
2022/12/21 01:07:50;;;;;;;80.80;24.02;;;7.30;99.90;;;;;;5033391;28;20426;-82
2022/12/21 01:10:16;;;;;;;94.72;23.55;;;7.30;99.90;;;;;;5046755;28;20429;-81
2022/12/21 01:12:42;;;;;;;110.72;25.08;;;7.20;99.90;;;;;;5042820;28;20426;-81
2022/12/21 01:15:08;;;;;;;92.13;19.83;;;7.10;99.90;;;;;;5047077;28;20409;-81
2022/12/21 01:17:34;;;;;;;88.03;18.88;;;7.20;99.90;;;;;;5028159;28;20955;-80
2022/12/21 01:20:00;;;;;;;89.57;18.92;;;7.20;99.90;;;;;;5037159;28;20409;-82
2022/12/21 01:22:26;;;;;;;99.13;19.77;;;7.00;99.90;;;;;;5046818;28;20417;-82
2022/12/21 01:24:51;;;;;;;91.47;19.87;;;7.20;99.90;;;;;;5050453;28;20823;-82
2022/12/21 01:27:17;;;;;;;91.80;19.43;;;7.00;99.90;;;;;;5052816;28;20566;-80
2022/12/21 01:29:43;;;;;;;131.75;23.90;;;7.10;99.90;;;;;;5052527;28;20468;-79
2022/12/21 01:32:08;;;;;;;116.97;20.67;;;7.00;99.90;;;;;;5052433;28;20401;-80
2022/12/21 01:34:34;;;;;;;91.07;17.83;;;7.00;99.90;;;;;;5052450;28;20431;-81
2022/12/21 01:36:59;;;;;;;120.55;19.40;;;7.00;99.90;;;;;;5050441;28;20466;-81
2022/12/21 01:39:25;;;;;;;122.15;19.27;;;7.20;99.90;;;;;;5049591;28;20435;-81
2022/12/21 01:41:51;;;;;;;135.40;18.80;;;7.10;99.90;;;;;;5035929;28;20815;-81
2022/12/21 01:45:02;;;;;;;118.10;19.60;;;7.00;99.90;;;;;;5048252;28;20421;-82
2022/12/21 01:47:43;;;;;;;150.02;17.95;;;6.90;99.90;;;;;;5010794;28;20528;-82
2022/12/21 01:50:48;;;;;;;170.32;20.35;;;6.60;99.90;;;;;;5044477;28;20465;-82
2022/12/21 01:53:37;;;;;;;242.68;24.77;;;6.60;99.90;;;;;;5046216;28;20777;-80
2022/12/21 01:56:07;;;;;;;199.63;20.55;;;6.90;99.90;;;;;;5049941;28;20414;-81
2022/12/21 01:58:34;;;;;;;164.57;20.00;;;6.80;99.90;;;;;;5045903;28;20421;-81
2022/12/21 02:01:02;;;;;;;223.50;22.45;;;6.50;99.90;;;;;;5050379;28;20428;-80
2022/12/21 02:03:33;;;;;;;123.57;16.92;;;6.50;99.90;;;;;;5050200;28;20427;-81
2022/12/21 02:06:06;;;;;;;121.22;16.60;;;6.60;99.90;;;;;;5049595;28;20429;-80
2022/12/21 02:08:32;;;;;;;159.15;17.42;;;6.50;99.90;;;;;;5048722;28;20512;-80
2022/12/21 02:10:59;;;;;;;188.18;18.27;;;6.50;99.90;;;;;;5049869;28;20838;-81
2022/12/21 02:13:24;;;;;;;178.85;17.52;;;6.50;99.90;;;;;;5142827;23;20417;-71
2022/12/21 02:15:59;;;;;;;146.07;16.55;;;6.30;99.90;;;;;;5067964;28;21053;-71
2022/12/21 02:18:44;;;;;;;147.85;17.55;;;6.30;99.90;;;;;;5085893;28;20410;-72
2022/12/21 02:21:29;;;;;;;134.40;16.33;;;6.50;99.90;;;;;;5077276;28;20429;-72
2022/12/21 02:24:33;;;;;;;178.43;17.15;;;6.30;99.90;;;;;;5068670;28;20446;-71
2022/12/21 02:27:17;;;;;;;134.43;15.98;;;6.50;99.90;;;;;;5079844;28;20497;-71
2022/12/21 02:30:00;;;;;;;100.13;14.15;;;6.30;99.90;;;;;;5089956;28;20426;-71
2022/12/21 02:32:38;;;;;;;117.70;15.43;;;6.30;99.90;;;;;;5088572;28;20416;-72
2022/12/21 02:35:03;;;;;;;147.30;16.60;;;6.20;99.90;;;;;;5082397;28;20483;-72
2022/12/21 02:37:33;;;;;;;154.32;17.55;;;6.30;99.90;;;;;;5086707;28;20790;-72
2022/12/21 02:40:49;;;;;;;164.77;18.92;;;6.20;99.90;;;;;;5067536;28;20779;-71
2022/12/21 02:46:44;;;;;;;174.52;19.40;;;6.30;99.90;;;;;;5069337;28;20440;-71
2022/12/21 02:49:15;;;;;;;201.60;21.45;;;6.40;99.90;;;;;;5075293;28;20474;-70
2022/12/21 02:52:03;;;;;;;117.72;16.00;;;6.30;99.90;;;;;;5068185;28;20433;-70
2022/12/21 02:54:28;;;;;;;106.78;16.88;;;6.50;99.90;;;;;;5072717;28;20441;-71
2022/12/21 02:56:54;;;;;;;125.90;16.85;;;6.50;99.90;;;;;;5070619;28;20902;-71
2022/12/21 02:59:28;;;;;;;88.25;14.77;;;6.50;99.90;;;;;;5086799;28;20441;-71
2022/12/21 03:02:08;;;;;;;148.23;18.70;;;6.30;99.90;;;;;;5088760;28;20467;-72
2022/12/21 03:05:12;;;;;;;94.85;16.05;;;6.50;99.90;;;;;;5084334;28;20428;-71
2022/12/21 03:07:37;;;;;;;113.57;16.85;;;6.30;99.90;;;;;;5065980;28;20544;-71
2022/12/21 03:10:28;;;;;;;124.50;17.50;;;6.50;99.90;;;;;;5068767;28;20503;-70
2022/12/21 03:13:20;;;;;;;113.40;15.07;;;6.30;99.90;;;;;;5067217;28;20422;-71
2022/12/21 03:16:14;;;;;;;149.80;16.17;;;6.30;99.90;;;;;;5084490;28;20464;-72
2022/12/21 03:18:56;;;;;;;127.38;15.27;;;6.00;99.90;;;;;;5087344;28;20418;-72
2022/12/21 03:21:34;;;;;;;156.15;18.08;;;6.20;99.90;;;;;;5067940;28;20417;-72
2022/12/21 03:24:36;;;;;;;95.05;13.93;;;6.00;99.90;;;;;;5080627;28;20422;-71
2022/12/21 03:27:17;;;;;;;141.23;15.23;;;6.10;99.90;;;;;;5068872;28;20417;-71
2022/12/21 03:29:59;;;;;;;143.80;16.08;;;6.10;99.90;;;;;;5069873;28;20430;-71
2022/12/21 03:32:33;;;;;;;174.13;15.90;;;5.90;99.90;;;;;;5056947;28;20467;-71
2022/12/21 03:35:00;;;;;;;180.70;17.00;;;5.80;99.90;;;;;;5068650;28;20425;-71
2022/12/21 03:37:37;;;;;;;121.20;16.37;;;6.00;99.90;;;;;;5067978;28;20432;-71
2022/12/21 03:40:24;;;;;;;148.23;17.48;;;6.10;99.90;;;;;;5087517;28;20445;-71
2022/12/21 03:43:04;;;;;;;103.05;15.63;;;6.10;99.90;;;;;;5065846;28;20419;-70
2022/12/21 03:45:52;;;;;;;149.07;17.20;;;6.10;99.90;;;;;;5084539;28;20901;-71
2022/12/21 03:48:43;;;;;;;153.65;17.35;;;6.00;99.90;;;;;;5064723;28;20437;-71
2022/12/21 03:51:24;;;;;;;116.68;15.18;;;5.90;99.90;;;;;;5070995;28;20814;-70
2022/12/21 03:54:14;;;;;;;151.40;20.70;;;5.90;99.90;;;;;;5082897;28;20428;-70
2022/12/21 03:56:41;;;;;;;159.85;19.58;;;5.90;99.90;;;;;;5047007;28;20426;-70
2022/12/21 03:59:09;;;;;;;166.65;20.98;;;6.10;99.90;;;;;;5086746;28;21079;-70
2022/12/21 04:01:59;;;;;;;135.35;17.27;;;6.10;99.90;;;;;;5086531;28;20410;-70
2022/12/21 04:04:57;;;;;;;110.35;15.98;;;6.10;99.90;;;;;;5081615;28;20433;-70
2022/12/21 04:07:25;;;;;;;116.07;16.65;;;6.10;99.90;;;;;;5078905;28;20425;-70
2022/12/21 04:10:18;;;;;;;108.40;16.13;;;6.20;99.90;;;;;;5084430;28;20691;-71
2022/12/21 04:12:46;;;;;;;105.95;16.80;;;6.10;99.90;;;;;;5072801;28;20783;-70
2022/12/21 04:16:02;;;;;;;86.80;15.07;;;6.10;99.90;;;;;;5067173;28;20501;-72
2022/12/21 04:18:10;;;;;;;83.65;14.10;;;6.10;99.90;;;;;;5064448;28;20414;-71
2022/12/21 04:20:36;;;;;;;161.52;18.02;;;5.70;99.90;;;;;;5085139;28;20490;-70
2022/12/21 04:28:32;;;;;;;105.38;14.27;;;5.80;99.90;;;;;;5062826;28;20431;-70
2022/12/21 04:30:59;;;;;;;104.32;15.15;;;5.90;99.90;;;;;;5085869;28;20418;-71
2022/12/21 04:33:27;;;;;;;85.30;13.73;;;6.00;99.90;;;;;;5087230;28;20519;-71
2022/12/21 04:38:41;;;;;;;97.38;14.85;;;6.00;99.90;;;;;;5066799;28;20430;-70
2022/12/21 04:41:07;;;;;;;120.18;17.10;;;6.10;99.90;;;;;;5086379;28;20524;-71
2022/12/21 04:43:36;;;;;;;120.20;15.67;;;6.10;99.90;;;;;;5066629;28;20521;-70
2022/12/21 04:46:04;;;;;;;114.80;17.53;;;5.90;99.90;;;;;;5063127;28;20490;-70
2022/12/21 04:48:30;;;;;;;79.30;14.75;;;6.10;99.90;;;;;;5067112;28;20443;-71
2022/12/21 04:51:02;;;;;;;96.00;15.87;;;5.80;99.90;;;;;;5084645;28;20501;-71
2022/12/21 04:53:28;;;;;;;81.50;15.47;;;5.90;99.90;;;;;;5066026;28;20433;-72
2022/12/21 04:55:53;;;;;;;130.33;19.00;;;5.80;99.90;;;;;;5086017;28;20964;-70
2022/12/21 04:58:19;;;;;;;110.37;16.03;;;5.90;99.90;;;;;;5083436;28;20959;-71
2022/12/21 05:00:45;;;;;;;136.33;19.73;;;5.70;99.90;;;;;;5087463;28;20460;-70
2022/12/21 05:03:10;;;;;;;130.30;16.30;;;6.10;99.90;;;;;;5068983;28;20417;-71
2022/12/21 05:05:36;;;;;;;170.83;20.27;;;5.80;99.90;;;;;;5084952;28;20425;-71
2022/12/21 05:08:02;;;;;;;115.23;17.57;;;6.00;99.90;;;;;;5082925;28;20424;-71
2022/12/21 05:10:27;;;;;;;139.93;19.10;;;6.00;99.90;;;;;;5082338;28;20483;-72
2022/12/21 05:12:53;;;;;;;71.10;16.13;;;6.00;99.90;;;;;;5085286;28;20483;-71
2022/12/21 05:15:19;;;;;;;144.00;19.97;;;6.10;99.90;;;;;;5085580;28;20853;-72
2022/12/21 05:17:44;;;;;;;91.20;16.40;;;5.80;99.90;;;;;;5087661;28;20426;-72
2022/12/21 05:20:10;;;;;;;107.97;17.95;;;5.80;99.90;;;;;;5085996;28;20479;-70
2022/12/21 05:22:36;;;;;;;107.72;18.83;;;5.90;99.90;;;;;;5066628;28;20449;-71
2022/12/21 05:25:02;;;;;;;117.07;17.73;;;5.90;99.90;;;;;;5086292;28;20426;-70
2022/12/21 05:27:28;;;;;;;100.57;17.17;;;5.80;99.90;;;;;;5068203;28;20483;-72
2022/12/21 05:29:53;;;;;;;120.95;18.55;;;6.10;99.90;;;;;;5067321;28;20425;-71
2022/12/21 05:32:19;;;;;;;138.63;20.25;;;6.10;99.90;;;;;;5086254;28;20775;-71
2022/12/21 05:34:44;;;;;;;127.13;18.17;;;5.90;99.90;;;;;;5065985;28;20491;-71
2022/12/21 05:37:10;;;;;;;76.65;14.15;;;5.90;99.90;;;;;;5067448;28;20505;-70
2022/12/21 05:39:36;;;;;;;111.30;16.52;;;6.10;99.90;;;;;;5085880;28;20437;-71
2022/12/21 05:42:03;;;;;;;94.85;15.70;;;5.90;99.90;;;;;;5084598;28;20479;-70
2022/12/21 05:44:28;;;;;;;115.32;17.42;;;6.10;99.90;;;;;;5079058;28;20550;-71
2022/12/21 05:46:55;;;;;;;119.18;17.88;;;6.10;99.90;;;;;;5059423;28;20501;-70
2022/12/21 05:49:20;;;;;;;168.07;19.67;;;6.10;99.90;;;;;;5066556;28;20422;-71
2022/12/21 05:51:47;;;;;;;96.07;16.13;;;5.80;99.90;;;;;;5083380;28;20422;-70
2022/12/21 05:54:13;;;;;;;155.43;18.07;;;5.90;99.90;;;;;;5084936;28;20409;-70
2022/12/21 05:56:39;;;;;;;141.98;18.58;;;6.10;99.90;;;;;;5049265;28;20426;-70
2022/12/21 05:59:05;;;;;;;181.70;22.97;;;6.10;99.90;;;;;;5066974;28;20442;-71
2022/12/21 06:01:32;;;;;;;185.05;21.55;;;6.10;99.90;;;;;;5084115;28;20409;-72
2022/12/21 06:03:57;;;;;;;178.07;20.40;;;5.70;99.90;;;;;;5083184;28;20546;-69
2022/12/21 06:06:23;;;;;;;165.70;22.30;;;5.70;99.90;;;;;;5078747;28;21150;-70
2022/12/21 06:08:49;;;;;;;170.60;21.13;;;6.00;99.90;;;;;;5065569;28;20939;-70
2022/12/21 06:11:24;;;;;;;125.50;20.13;;;5.90;99.90;;;;;;5054336;28;20756;-71
2022/12/21 06:13:50;;;;;;;122.60;18.15;;;6.10;99.90;;;;;;5088132;28;20445;-71
2022/12/21 06:16:26;;;;;;;204.70;23.02;;;5.90;99.90;;;;;;5087210;28;20432;-71
2022/12/21 06:18:53;;;;;;;120.55;19.15;;;5.90;99.90;;;;;;5068986;28;20440;-71
2022/12/21 06:21:19;;;;;;;94.32;18.67;;;5.90;99.90;;;;;;5069985;28;20418;-70
2022/12/21 06:23:46;;;;;;;93.30;17.38;;;6.10;99.90;;;;;;5089443;28;20406;-71
2022/12/21 06:26:15;;;;;;;115.45;19.52;;;6.10;99.90;;;;;;5070227;28;20441;-71
2022/12/21 06:28:42;;;;;;;112.10;19.85;;;6.20;99.90;;;;;;5087737;28;20857;-70
2022/12/21 06:31:10;;;;;;;95.88;18.17;;;6.20;99.90;;;;;;5068169;28;20434;-71
2022/12/21 06:33:36;;;;;;;121.72;22.02;;;6.10;99.90;;;;;;5084712;28;21342;-69
2022/12/21 06:36:04;;;;;;;90.22;19.15;;;5.90;99.90;;;;;;5081373;28;20475;-70
2022/12/21 06:38:31;;;;;;;53.67;16.95;;;6.10;99.90;;;;;;5082422;28;20468;-71
2022/12/21 06:41:00;;;;;;;75.65;20.20;;;5.80;99.90;;;;;;5087050;28;20455;-71
2022/12/21 06:43:27;;;;;;;66.93;17.42;;;5.70;99.90;;;;;;5087608;28;21055;-71
2022/12/21 06:45:55;;;;;;;57.88;17.13;;;5.80;99.90;;;;;;5086059;28;20445;-70
2022/12/21 06:48:22;;;;;;;103.97;21.48;;;5.80;99.90;;;;;;5067145;28;20486;-71
2022/12/21 06:50:56;;;;;;;63.60;18.60;;;6.00;99.90;;;;;;5089143;28;20855;-73
2022/12/21 06:53:29;;;;;;;71.28;17.35;;;5.60;99.90;;;;;;5070510;28;20869;-71
2022/12/21 06:55:59;;;;;;;72.32;17.63;;;5.80;99.90;;;;;;5089337;28;20405;-71
2022/12/21 06:58:25;;;;;;;73.93;18.45;;;5.70;99.90;;;;;;5070409;28;20425;-70
2022/12/21 07:00:50;;;;;;;83.38;18.55;;;5.70;99.90;;;;;;5088143;28;20420;-69
2022/12/21 07:03:16;;;;;;;96.37;20.10;;;5.80;99.90;;;;;;5075809;28;20422;-71
2022/12/21 07:05:42;;;;;;;54.83;16.07;;;5.70;99.90;;;;;;5068535;28;20431;-71
2022/12/21 07:08:07;;;;;;;81.33;18.10;;;5.70;99.90;;;;;;5088844;28;20837;-71
2022/12/21 07:10:33;;;;;;;95.33;20.70;;;5.60;99.90;;;;;;5087767;28;20479;-71
2022/12/21 07:12:59;;;;;;;96.38;19.45;;;5.80;99.90;;;;;;5088437;28;20888;-71
2022/12/21 07:15:25;;;;;;;140.68;22.90;;;5.70;99.90;;;;;;5090353;28;20896;-70
2022/12/21 07:17:50;;;;;;;101.20;21.13;;;5.90;99.90;;;;;;5088627;28;20508;-70
2022/12/21 07:20:16;;;;;;;79.17;19.53;;;6.00;99.90;;;;;;5088722;28;20420;-70
2022/12/21 07:22:42;;;;;;;100.72;22.38;;;6.00;99.90;;;;;;5086987;28;20394;-71
2022/12/21 07:25:08;;;;;;;141.90;27.90;;;6.20;99.90;;;;;;5070743;28;20472;-71
2022/12/21 07:27:34;;;;;;;73.85;21.80;;;6.20;99.90;;;;;;5067074;28;20551;-70
2022/12/21 07:29:59;;;;;;;107.00;24.07;;;6.00;99.90;;;;;;5070488;28;20525;-70
2022/12/21 07:32:25;;;;;;;102.73;22.87;;;5.90;99.90;;;;;;5069274;28;20465;-70
2022/12/21 07:34:50;;;;;;;149.05;29.35;;;6.00;99.90;;;;;;5089031;28;20435;-70
2022/12/21 07:37:16;;;;;;;96.72;25.58;;;6.10;99.90;;;;;;5088385;28;20399;-71
2022/12/21 07:39:42;;;;;;;130.05;28.45;;;5.80;99.90;;;;;;5087637;28;20788;-71
2022/12/21 07:42:07;;;;;;;81.57;23.13;;;6.20;99.90;;;;;;5070113;28;20437;-70
2022/12/21 07:44:33;;;;;;;87.07;24.48;;;6.20;99.90;;;;;;5070503;28;20422;-70
2022/12/21 07:46:59;;;;;;;101.97;25.27;;;6.20;99.90;;;;;;5069495;28;21150;-70
2022/12/21 07:49:24;;;;;;;87.95;25.38;;;5.90;99.90;;;;;;5087754;28;20765;-70
2022/12/21 07:51:50;;;;;;;94.90;23.23;;;6.10;99.90;;;;;;5079216;28;20456;-71
2022/12/21 07:54:16;;;;;;;75.75;23.65;;;6.20;99.90;;;;;;5084778;28;20414;-71
2022/12/21 07:56:41;;;;;;;92.30;24.85;;;6.10;99.90;;;;;;5085607;28;20467;-70
2022/12/21 07:59:07;;;;;;;85.40;23.30;;;6.20;99.90;;;;;;5087669;28;20410;-70
2022/12/21 08:01:32;;;;;;;80.18;24.92;;;6.10;99.90;;;;;;5046070;28;20890;-70
2022/12/21 08:03:59;;;;;;;90.53;25.97;;;6.20;99.90;;;;;;5086548;28;20414;-70
2022/12/21 08:06:25;;;;;;;85.68;23.83;;;6.10;99.90;;;;;;5068983;28;20406;-69
2022/12/21 08:08:51;;;;;;;68.18;23.27;;;6.10;99.90;;;;;;5086171;28;20444;-71
2022/12/21 08:11:18;;;;;;;75.47;24.75;;;6.30;99.90;;;;;;5088615;28;20410;-70
2022/12/21 08:13:45;;;;;;;63.63;23.70;;;6.30;99.90;;;;;;5070178;28;20423;-70
2022/12/21 08:16:14;;;;;;;76.57;25.00;;;6.10;99.90;;;;;;5049825;28;20404;-71
2022/12/21 08:18:40;;;;;;;83.28;24.08;;;6.20;99.90;;;;;;5085520;28;20410;-69
2022/12/21 08:21:06;;;;;;;78.53;22.52;;;5.90;99.90;;;;;;5067479;28;20831;-70
2022/12/21 08:23:32;;;;;;;56.92;23.77;;;5.90;99.90;;;;;;5087401;28;20460;-69
2022/12/21 08:26:04;;;;;;;77.00;24.03;;;6.30;99.90;;;;;;5069615;28;20492;-70
2022/12/21 08:28:30;;;;;;;83.90;25.08;;;6.30;99.90;;;;;;5066846;28;20425;-71
2022/12/21 08:31:04;;;;;;;55.85;22.42;;;6.30;99.90;;;;;;5069041;28;20455;-70
2022/12/21 08:33:30;;;;;;;82.13;24.80;;;6.30;99.90;;;;;;5091724;28;20445;-70
2022/12/21 08:35:56;;;;;;;97.10;28.25;;;6.40;99.90;;;;;;5095383;28;20756;-71
2022/12/21 08:38:22;;;;;;;77.88;25.17;;;6.30;99.90;;;;;;5085718;28;20432;-70
2022/12/21 08:40:48;;;;;;;79.83;25.73;;;6.10;99.90;;;;;;5068197;28;20437;-72
2022/12/21 08:43:14;;;;;;;131.23;29.47;;;6.40;99.90;;;;;;5066032;28;20418;-71
2022/12/21 08:45:40;;;;;;;76.70;26.17;;;6.10;99.90;;;;;;5087044;28;20915;-71
2022/12/21 08:48:06;;;;;;;65.68;25.35;;;6.40;99.90;;;;;;5086911;28;20425;-71
2022/12/21 08:50:32;;;;;;;62.78;25.58;;;6.30;99.90;;;;;;5084040;28;21259;-70
2022/12/21 08:52:57;;;;;;;62.27;24.33;;;6.40;99.90;;;;;;5071376;28;21163;-70
2022/12/21 08:55:23;;;;;;;50.33;23.33;;;6.70;99.90;;;;;;5069165;28;20421;-70
2022/12/21 08:57:49;;;;;;;52.67;24.70;;;6.50;99.90;;;;;;5086975;28;20761;-70
2022/12/21 09:00:14;;;;;;;74.87;27.63;;;6.70;99.90;;;;;;5067767;28;20768;-70
2022/12/21 09:02:40;;;;;;;58.93;25.77;;;6.40;99.90;;;;;;5067148;28;20457;-71
2022/12/21 09:05:06;;;;;;;61.83;24.70;;;6.70;99.90;;;;;;5049327;28;20435;-71
2022/12/21 09:07:32;;;;;;;52.03;26.20;;;6.50;99.90;;;;;;5091927;28;20460;-70
2022/12/21 09:09:58;;;;;;;44.38;23.98;;;6.70;99.90;;;;;;5087063;28;20406;-70
2022/12/21 09:12:24;;;;;;;57.67;26.03;;;6.90;99.90;;;;;;5085277;28;21120;-70
2022/12/21 09:14:49;;;;;;;77.93;31.23;;;6.80;99.90;;;;;;5066508;28;20474;-70
2022/12/21 09:17:15;;;;;;;52.30;25.63;;;6.90;99.90;;;;;;5058802;28;20396;-69
2022/12/21 09:19:41;;;;;;;52.57;25.10;;;6.70;99.90;;;;;;5086768;28;20558;-71
2022/12/21 09:22:06;;;;;;;57.67;27.67;;;6.80;99.90;;;;;;5067931;28;20489;-70
2022/12/21 09:24:32;;;;;;;50.30;26.83;;;7.00;99.90;;;;;;5086038;28;20418;-70
2022/12/21 09:26:58;;;;;;;48.17;25.43;;;6.70;99.90;;;;;;5086300;28;20421;-71
2022/12/21 09:29:23;;;;;;;53.35;26.75;;;6.70;99.90;;;;;;5086286;28;20425;-70
2022/12/21 09:31:50;;;;;;;52.25;25.80;;;6.90;99.90;;;;;;5068533;28;20782;-70
2022/12/21 09:34:17;;;;;;;60.47;26.55;;;6.70;99.90;;;;;;5086284;28;20823;-70
2022/12/21 09:36:44;;;;;;;48.88;25.13;;;6.80;99.90;;;;;;5085698;28;20406;-72
2022/12/21 09:39:09;;;;;;;52.00;25.38;;;6.90;99.90;;;;;;5068444;28;20402;-71
2022/12/21 09:41:44;;;;;;;58.80;27.40;;;6.70;99.90;;;;;;5068187;28;21030;-70
2022/12/21 09:44:44;;;;;;;50.80;25.58;;;6.90;99.90;;;;;;5068472;28;20939;-70
2022/12/21 09:47:21;;;;;;;46.93;24.83;;;6.80;99.90;;;;;;5056597;28;20418;-70
2022/12/21 09:49:59;;;;;;;58.37;28.33;;;6.80;99.90;;;;;;5085244;28;20409;-70
2022/12/21 09:52:40;;;;;;;59.87;27.13;;;6.90;99.90;;;;;;5089106;28;20436;-70
2022/12/21 09:55:14;;;;;;;58.80;27.33;;;7.10;99.90;;;;;;5071345;28;20417;-72
2022/12/21 09:57:39;;;;;;;50.25;25.45;;;6.90;99.90;;;;;;5071643;28;20468;-70
2022/12/21 10:00:17;;;;;;;53.10;25.35;;;6.80;99.90;;;;;;5089744;28;20486;-71
2022/12/21 10:02:54;;;;;;;44.72;23.70;;;6.90;99.90;;;;;;5070815;28;20442;-73
2022/12/21 10:05:29;;;;;;;42.20;22.60;;;7.00;99.90;;;;;;5091723;28;20784;-70
2022/12/21 10:08:20;;;;;;;46.20;24.33;;;7.00;99.90;;;;;;5070321;28;20421;-71
2022/12/21 10:11:14;;;;;;;43.28;24.42;;;6.90;99.90;;;;;;5088640;28;20472;-71
2022/12/21 10:14:06;;;;;;;49.08;24.30;;;6.90;99.90;;;;;;5088662;28;20516;-70
2022/12/21 10:16:49;;;;;;;61.42;27.73;;;6.90;99.90;;;;;;5090260;28;20742;-70
2022/12/21 10:19:22;;;;;;;49.72;25.35;;;7.00;99.90;;;;;;5068392;28;20444;-70
2022/12/21 10:22:26;;;;;;;51.75;27.05;;;7.10;99.90;;;;;;5088627;28;20504;-72
2022/12/21 10:25:01;;;;;;;50.05;27.25;;;7.20;99.90;;;;;;4935373;28;20541;-70
2022/12/21 10:27:43;;;;;;;45.40;24.00;;;7.10;99.90;;;;;;4967304;28;20447;-71
2022/12/21 10:30:13;;;;;;;45.65;23.73;;;7.00;99.90;;;;;;5033637;28;20935;-71
2022/12/21 10:32:40;;;;;;;43.67;23.45;;;7.00;99.90;;;;;;5069340;28;20875;-71
2022/12/21 10:35:31;;;;;;;39.88;21.88;;;7.20;99.90;;;;;;5065187;28;20510;-72
2022/12/21 10:37:58;;;;;;;46.22;23.50;;;7.30;99.90;;;;;;5066379;28;20445;-71
2022/12/21 10:40:27;;;;;;;46.75;23.85;;;7.00;99.90;;;;;;5067067;28;20426;-72
2022/12/21 10:42:54;;;;;;;43.28;22.45;;;7.30;99.90;;;;;;5083271;28;20396;-72
2022/12/21 10:45:23;;;;;;;41.93;23.00;;;7.30;99.90;;;;;;5069394;28;20430;-72
2022/12/21 10:47:49;;;;;;;41.63;22.27;;;7.20;99.90;;;;;;5077413;28;20482;-72
2022/12/21 10:50:20;;;;;;;40.75;22.80;;;7.20;99.90;;;;;;5067635;28;20418;-72
2022/12/21 10:52:54;;;;;;;40.55;22.00;;;7.40;99.90;;;;;;5069451;28;20805;-72
2022/12/21 10:55:25;;;;;;;39.03;20.87;;;7.20;99.90;;;;;;5069186;28;20499;-72
2022/12/21 10:57:54;;;;;;;39.28;20.15;;;7.40;99.90;;;;;;5073793;28;20394;-72
2022/12/21 11:00:29;;;;;;;42.55;21.23;;;7.50;99.90;;;;;;5070055;28;20513;-72
2022/12/21 11:03:00;;;;;;;39.47;21.20;;;7.60;99.90;;;;;;5053367;28;20433;-72
2022/12/21 11:05:30;;;;;;;40.15;21.60;;;7.60;99.90;;;;;;5071878;28;20424;-72
2022/12/21 11:08:24;;;;;;;38.30;21.45;;;7.60;99.90;;;;;;5068654;28;20444;-74
2022/12/21 11:10:52;;;;;;;40.85;20.40;;;7.70;99.90;;;;;;5068547;28;20400;-72
2022/12/21 11:13:20;;;;;;;38.97;20.25;;;7.70;99.90;;;;;;5049644;28;20408;-72
2022/12/21 11:16:06;;;;;;;36.90;21.45;;;7.90;99.90;;;;;;5068985;28;20414;-72
2022/12/21 11:18:37;;;;;;;45.28;22.20;;;7.90;99.90;;;;;;5064014;28;20945;-73
2022/12/21 11:21:24;;;;;;;41.80;21.25;;;8.00;99.90;;;;;;5084927;28;20418;-71
2022/12/21 11:24:12;;;;;;;42.00;21.60;;;7.90;99.90;;;;;;5085582;28;20443;-73
2022/12/21 11:26:45;;;;;;;41.15;21.65;;;7.90;99.90;;;;;;5054849;28;20804;-71
2022/12/21 11:29:51;;;;;;;39.05;22.33;;;8.00;99.90;;;;;;5066566;28;20768;-71
2022/12/21 11:32:18;;;;;;;38.50;21.05;;;8.00;99.90;;;;;;5068149;28;20415;-72
2022/12/21 11:34:48;;;;;;;35.72;19.33;;;8.00;99.90;;;;;;5066094;28;20430;-71
2022/12/21 11:37:37;;;;;;;36.97;18.75;;;8.10;99.90;;;;;;5070693;28;20412;-71
2022/12/21 11:40:22;;;;;;;35.80;18.17;;;8.10;99.90;;;;;;5059295;28;20410;-71
2022/12/21 11:43:00;;;;;;;34.65;17.67;;;8.00;99.90;;;;;;5088006;28;20424;-70
2022/12/21 11:45:36;;;;;;;33.42;18.58;;;8.00;99.90;;;;;;5069484;28;20437;-71
2022/12/21 11:48:37;;;;;;;35.17;17.70;;;8.00;99.90;;;;;;5068215;28;20418;-72
2022/12/21 11:51:14;;;;;;;29.00;17.05;;;8.10;99.90;;;;;;5062489;28;20429;-71
2022/12/21 11:53:43;;;;;;;32.92;17.33;;;8.10;99.90;;;;;;5066538;28;20399;-71
2022/12/21 11:56:27;;;;;;;38.75;19.92;;;8.10;99.90;;;;;;5088050;28;20430;-71
2022/12/21 11:59:11;;;;;;;35.97;17.83;;;8.10;99.90;;;;;;5069312;28;20959;-72
2022/12/21 12:02:15;;;;;;;33.92;18.50;;;8.20;99.90;;;;;;5087632;28;20525;-71
2022/12/21 12:04:59;;;;;;;32.80;16.92;;;8.30;99.90;;;;;;5067500;28;20509;-72
2022/12/21 12:08:01;;;;;;;29.85;15.50;;;8.30;99.90;;;;;;5089291;28;20857;-71
2022/12/21 12:11:04;;;;;;;32.53;15.98;;;8.30;99.90;;;;;;5054304;28;20432;-71
2022/12/21 12:14:04;;;;;;;36.53;18.95;;;8.40;99.90;;;;;;5081791;28;20423;-70
2022/12/21 12:16:57;;;;;;;31.77;17.60;;;8.30;99.90;;;;;;5069959;28;20864;-70
2022/12/21 12:19:28;;;;;;;38.88;19.70;;;8.50;99.90;;;;;;5087238;28;20406;-71
2022/12/21 12:22:13;;;;;;;36.13;19.52;;;8.40;99.90;;;;;;5083761;28;20426;-71
2022/12/21 12:24:56;;;;;;;37.97;19.20;;;8.50;99.90;;;;;;5066950;28;20437;-71
2022/12/21 12:28:07;;;;;;;34.63;17.92;;;8.50;99.90;;;;;;5044712;28;20454;-69
2022/12/21 12:31:10;;;;;;;29.60;18.13;;;8.50;99.90;;;;;;5051817;28;20433;-70
2022/12/21 12:33:58;;;;;;;31.88;17.63;;;8.40;99.90;;;;;;5065480;28;20418;-71
2022/12/21 12:36:42;;;;;;;32.10;19.40;;;8.40;99.90;;;;;;5052455;28;20414;-70
2022/12/21 12:39:25;;;;;;;33.40;20.55;;;8.50;99.90;;;;;;5084136;28;20650;-71
2022/12/21 12:42:03;;;;;;;35.13;18.90;;;8.60;99.90;;;;;;5082809;28;20413;-72
2022/12/21 12:44:51;;;;;;;41.00;21.05;;;8.70;99.90;;;;;;5087454;28;20445;-71
2022/12/21 12:47:32;;;;;;;36.20;18.85;;;8.70;99.90;;;;;;5052174;28;20418;-71
2022/12/21 12:50:21;;;;;;;30.67;18.43;;;8.40;99.90;;;;;;5065216;28;21272;-71
2022/12/21 12:53:15;;;;;;;34.50;18.27;;;8.40;99.90;;;;;;5076984;28;20425;-72
2022/12/21 12:55:47;;;;;;;28.60;17.25;;;8.50;99.90;;;;;;5067322;28;20430;-71
2022/12/21 12:58:42;;;;;;;31.55;16.02;;;8.30;99.90;;;;;;5067634;28;20432;-71
2022/12/21 13:01:27;;;;;;;30.23;16.02;;;8.40;99.90;;;;;;5063222;28;20810;-71
2022/12/21 13:04:20;;;;;;;26.92;16.92;;;8.40;99.90;;;;;;5063397;28;20819;-70
2022/12/21 13:07:06;;;;;;;32.17;18.67;;;8.30;99.90;;;;;;5085965;28;20475;-71
2022/12/21 13:10:06;;;;;;;29.58;17.00;;;8.30;99.90;;;;;;5066148;28;20422;-71
2022/12/21 13:12:54;;;;;;;37.20;18.85;;;8.30;99.90;;;;;;5048901;28;20415;-71
2022/12/21 13:15:27;;;;;;;29.08;17.73;;;8.30;99.90;;;;;;5063776;28;20481;-72